sensor_id;sensor_type;location;lat;lon;timestamp;temperature;humidity
17178;DHT22;8704;52.006;4.374;2022-12-10T00:01:24;0.40;99.90
17178;DHT22;8704;52.006;4.374;2022-12-10T00:03:52;0.40;99.90
17178;DHT22;8704;52.006;4.374;2022-12-10T00:06:22;0.40;99.90
17178;DHT22;8704;52.006;4.374;2022-12-10T00:08:50;0.30;99.90
17178;DHT22;8704;52.006;4.374;2022-12-10T00:11:20;0.30;99.90
17178;DHT22;8704;52.006;4.374;2022-12-10T00:13:49;0.30;99.90
17178;DHT22;8704;52.006;4.374;2022-12-10T00:16:20;0.20;99.90
17178;DHT22;8704;52.006;4.374;2022-12-10T00:18:50;0.20;99.90
17178;DHT22;8704;52.006;4.374;2022-12-10T00:21:21;0.20;99.90
17178;DHT22;8704;52.006;4.374;2022-12-10T00:23:50;0.20;99.90
17178;DHT22;8704;52.006;4.374;2022-12-10T00:26:19;0.10;99.90
17178;DHT22;8704;52.006;4.374;2022-12-10T00:28:49;0.10;99.90
17178;DHT22;8704;52.006;4.374;2022-12-10T00:31:19;0.10;99.90
17178;DHT22;8704;52.006;4.374;2022-12-10T00:33:49;0.10;99.90
17178;DHT22;8704;52.006;4.374;2022-12-10T00:36:19;0.10;99.90
17178;DHT22;8704;52.006;4.374;2022-12-10T00:38:48;0.90;99.90
17178;DHT22;8704;52.006;4.374;2022-12-10T00:41:17;0.00;99.90
17178;DHT22;8704;52.006;4.374;2022-12-10T00:43:45;0.10;99.90
17178;DHT22;8704;52.006;4.374;2022-12-10T00:46:15;0.00;99.90
17178;DHT22;8704;52.006;4.374;2022-12-10T00:48:44;-0.10;99.90
17178;DHT22;8704;52.006;4.374;2022-12-10T00:51:16;0.50;99.90
17178;DHT22;8704;52.006;4.374;2022-12-10T00:53:46;0.70;99.90
17178;DHT22;8704;52.006;4.374;2022-12-10T00:56:16;-0.10;99.90
17178;DHT22;8704;52.006;4.374;2022-12-10T00:58:45;0.00;99.90
17178;DHT22;8704;52.006;4.374;2022-12-10T01:01:17;0.00;99.90
17178;DHT22;8704;52.006;4.374;2022-12-10T01:03:46;0.00;99.90
17178;DHT22;8704;52.006;4.374;2022-12-10T01:06:17;0.00;99.90
17178;DHT22;8704;52.006;4.374;2022-12-10T01:08:46;0.00;99.90
17178;DHT22;8704;52.006;4.374;2022-12-10T01:11:16;0.00;99.90
17178;DHT22;8704;52.006;4.374;2022-12-10T01:13:46;0.00;99.90
17178;DHT22;8704;52.006;4.374;2022-12-10T01:16:17;0.10;99.90
17178;DHT22;8704;52.006;4.374;2022-12-10T01:18:46;0.10;99.90
17178;DHT22;8704;52.006;4.374;2022-12-10T01:21:17;0.60;99.90
17178;DHT22;8704;52.006;4.374;2022-12-10T01:23:48;1.00;99.90
17178;DHT22;8704;52.006;4.374;2022-12-10T01:26:18;0.10;99.90
17178;DHT22;8704;52.006;4.374;2022-12-10T01:28:46;0.10;99.90
17178;DHT22;8704;52.006;4.374;2022-12-10T01:31:15;0.20;99.90
17178;DHT22;8704;52.006;4.374;2022-12-10T01:33:44;0.10;99.90
17178;DHT22;8704;52.006;4.374;2022-12-10T01:36:17;0.10;99.90
17178;DHT22;8704;52.006;4.374;2022-12-10T01:38:46;0.80;99.90
17178;DHT22;8704;52.006;4.374;2022-12-10T01:41:16;0.20;99.90
17178;DHT22;8704;52.006;4.374;2022-12-10T01:43:54;0.20;99.90
17178;DHT22;8704;52.006;4.374;2022-12-10T01:46:23;0.70;99.90
17178;DHT22;8704;52.006;4.374;2022-12-10T01:48:51;0.90;99.90
17178;DHT22;8704;52.006;4.374;2022-12-10T01:51:23;0.20;99.90
17178;DHT22;8704;52.006;4.374;2022-12-10T01:53:51;1.10;99.90
17178;DHT22;8704;52.006;4.374;2022-12-10T01:56:20;0.20;99.90
17178;DHT22;8704;52.006;4.374;2022-12-10T01:58:50;0.20;99.90
17178;DHT22;8704;52.006;4.374;2022-12-10T02:01:26;0.30;99.90
17178;DHT22;8704;52.006;4.374;2022-12-10T02:04:06;0.20;99.90
17178;DHT22;8704;52.006;4.374;2022-12-10T02:06:53;0.50;99.90
17178;DHT22;8704;52.006;4.374;2022-12-10T02:09:25;0.30;99.90
17178;DHT22;8704;52.006;4.374;2022-12-10T02:12:05;0.30;99.90
17178;DHT22;8704;52.006;4.374;2022-12-10T02:14:41;0.30;99.90
17178;DHT22;8704;52.006;4.374;2022-12-10T02:17:13;1.70;99.90
17178;DHT22;8704;52.006;4.374;2022-12-10T02:20:00;0.30;99.90
17178;DHT22;8704;52.006;4.374;2022-12-10T02:22:36;0.30;99.90
17178;DHT22;8704;52.006;4.374;2022-12-10T02:25:07;0.30;99.90
17178;DHT22;8704;52.006;4.374;2022-12-10T02:27:41;0.30;99.90
17178;DHT22;8704;52.006;4.374;2022-12-10T02:30:12;1.50;99.90
17178;DHT22;8704;52.006;4.374;2022-12-10T02:32:41;0.60;99.90
17178;DHT22;8704;52.006;4.374;2022-12-10T02:35:14;0.40;99.90
17178;DHT22;8704;52.006;4.374;2022-12-10T02:37:46;0.40;99.90
17178;DHT22;8704;52.006;4.374;2022-12-10T02:40:20;0.40;99.90
17178;DHT22;8704;52.006;4.374;2022-12-10T02:42:51;0.40;99.90
17178;DHT22;8704;52.006;4.374;2022-12-10T02:45:23;1.70;99.90
17178;DHT22;8704;52.006;4.374;2022-12-10T02:47:55;1.40;99.90
17178;DHT22;8704;52.006;4.374;2022-12-10T02:50:24;0.40;99.90
17178;DHT22;8704;52.006;4.374;2022-12-10T02:52:52;1.40;99.90
17178;DHT22;8704;52.006;4.374;2022-12-10T02:55:20;0.40;99.90
17178;DHT22;8704;52.006;4.374;2022-12-10T02:58:02;0.50;99.90
17178;DHT22;8704;52.006;4.374;2022-12-10T03:00:36;0.50;99.90
17178;DHT22;8704;52.006;4.374;2022-12-10T03:03:25;2.00;99.90
17178;DHT22;8704;52.006;4.374;2022-12-10T03:05:59;0.40;99.90
17178;DHT22;8704;52.006;4.374;2022-12-10T03:08:34;0.40;99.90
17178;DHT22;8704;52.006;4.374;2022-12-10T03:11:10;1.50;99.90
17178;DHT22;8704;52.006;4.374;2022-12-10T03:13:45;1.60;99.90
17178;DHT22;8704;52.006;4.374;2022-12-10T03:16:17;0.40;99.90
17178;DHT22;8704;52.006;4.374;2022-12-10T03:18:52;0.40;99.90
17178;DHT22;8704;52.006;4.374;2022-12-10T03:21:23;0.40;99.90
17178;DHT22;8704;52.006;4.374;2022-12-10T03:23:52;0.40;99.90
17178;DHT22;8704;52.006;4.374;2022-12-10T03:26:21;1.00;99.90
17178;DHT22;8704;52.006;4.374;2022-12-10T03:28:52;0.40;99.90
17178;DHT22;8704;52.006;4.374;2022-12-10T03:31:23;0.40;99.90
17178;DHT22;8704;52.006;4.374;2022-12-10T03:33:52;0.40;99.90
17178;DHT22;8704;52.006;4.374;2022-12-10T03:36:22;0.40;99.90
17178;DHT22;8704;52.006;4.374;2022-12-10T03:38:50;0.40;99.90
17178;DHT22;8704;52.006;4.374;2022-12-10T03:41:19;0.50;99.90
17178;DHT22;8704;52.006;4.374;2022-12-10T03:43:51;0.40;99.90
17178;DHT22;8704;52.006;4.374;2022-12-10T03:46:19;1.80;99.90
17178;DHT22;8704;52.006;4.374;2022-12-10T03:48:49;0.40;99.90
17178;DHT22;8704;52.006;4.374;2022-12-10T03:51:17;0.50;99.90
17178;DHT22;8704;52.006;4.374;2022-12-10T03:53:45;1.30;99.90
17178;DHT22;8704;52.006;4.374;2022-12-10T03:56:16;0.50;99.90
17178;DHT22;8704;52.006;4.374;2022-12-10T03:58:44;0.50;99.90
17178;DHT22;8704;52.006;4.374;2022-12-10T04:01:12;1.10;99.90
17178;DHT22;8704;52.006;4.374;2022-12-10T04:03:41;0.50;99.90
17178;DHT22;8704;52.006;4.374;2022-12-10T04:06:14;0.50;99.90
17178;DHT22;8704;52.006;4.374;2022-12-10T04:08:43;0.50;99.90
17178;DHT22;8704;52.006;4.374;2022-12-10T04:11:13;1.50;99.90
17178;DHT22;8704;52.006;4.374;2022-12-10T04:13:42;0.50;99.90
17178;DHT22;8704;52.006;4.374;2022-12-10T04:16:30;0.50;99.90
17178;DHT22;8704;52.006;4.374;2022-12-10T04:19:01;0.90;99.90
17178;DHT22;8704;52.006;4.374;2022-12-10T04:21:32;0.50;99.90
17178;DHT22;8704;52.006;4.374;2022-12-10T04:24:20;0.50;99.90
17178;DHT22;8704;52.006;4.374;2022-12-10T04:27:08;0.50;99.90
17178;DHT22;8704;52.006;4.374;2022-12-10T04:29:37;0.50;99.90
17178;DHT22;8704;52.006;4.374;2022-12-10T04:32:05;0.50;99.90
17178;DHT22;8704;52.006;4.374;2022-12-10T04:34:34;0.60;99.90
17178;DHT22;8704;52.006;4.374;2022-12-10T04:37:04;0.60;99.90
17178;DHT22;8704;52.006;4.374;2022-12-10T04:39:32;0.60;99.90
17178;DHT22;8704;52.006;4.374;2022-12-10T04:42:00;1.60;99.90
17178;DHT22;8704;52.006;4.374;2022-12-10T04:44:29;1.70;99.90
17178;DHT22;8704;52.006;4.374;2022-12-10T04:46:57;0.60;99.90
17178;DHT22;8704;52.006;4.374;2022-12-10T04:49:26;1.40;99.90
17178;DHT22;8704;52.006;4.374;2022-12-10T04:51:54;1.70;99.90
17178;DHT22;8704;52.006;4.374;2022-12-10T04:54:24;0.70;99.90
17178;DHT22;8704;52.006;4.374;2022-12-10T04:56:52;0.60;99.90
17178;DHT22;8704;52.006;4.374;2022-12-10T04:59:20;0.60;99.90
17178;DHT22;8704;52.006;4.374;2022-12-10T05:01:48;0.60;99.90
17178;DHT22;8704;52.006;4.374;2022-12-10T05:04:17;0.60;99.90
17178;DHT22;8704;52.006;4.374;2022-12-10T05:06:47;0.70;99.90
17178;DHT22;8704;52.006;4.374;2022-12-10T05:09:16;0.70;99.90
17178;DHT22;8704;52.006;4.374;2022-12-10T05:11:46;0.70;99.90
17178;DHT22;8704;52.006;4.374;2022-12-10T05:14:15;1.10;99.90
17178;DHT22;8704;52.006;4.374;2022-12-10T05:16:43;0.70;99.90
17178;DHT22;8704;52.006;4.374;2022-12-10T05:19:11;0.70;99.90
17178;DHT22;8704;52.006;4.374;2022-12-10T05:21:39;0.70;99.90
17178;DHT22;8704;52.006;4.374;2022-12-10T05:24:25;0.70;99.90
17178;DHT22;8704;52.006;4.374;2022-12-10T05:26:55;0.70;99.90
17178;DHT22;8704;52.006;4.374;2022-12-10T05:29:24;0.70;99.90
17178;DHT22;8704;52.006;4.374;2022-12-10T05:31:52;1.30;99.90
17178;DHT22;8704;52.006;4.374;2022-12-10T05:34:21;0.60;99.90
17178;DHT22;8704;52.006;4.374;2022-12-10T05:36:49;0.60;99.90
17178;DHT22;8704;52.006;4.374;2022-12-10T05:39:17;0.60;99.90
17178;DHT22;8704;52.006;4.374;2022-12-10T05:41:45;0.70;99.90
17178;DHT22;8704;52.006;4.374;2022-12-10T05:44:15;0.60;99.90
17178;DHT22;8704;52.006;4.374;2022-12-10T05:46:43;1.40;99.90
17178;DHT22;8704;52.006;4.374;2022-12-10T05:49:11;0.70;99.90
17178;DHT22;8704;52.006;4.374;2022-12-10T05:51:39;0.60;99.90
17178;DHT22;8704;52.006;4.374;2022-12-10T05:54:07;0.70;99.90
17178;DHT22;8704;52.006;4.374;2022-12-10T05:56:36;1.40;99.90
17178;DHT22;8704;52.006;4.374;2022-12-10T05:59:05;0.60;99.90
17178;DHT22;8704;52.006;4.374;2022-12-10T06:01:43;1.70;99.90
17178;DHT22;8704;52.006;4.374;2022-12-10T06:04:11;0.60;99.90
17178;DHT22;8704;52.006;4.374;2022-12-10T06:06:40;0.60;99.90
17178;DHT22;8704;52.006;4.374;2022-12-10T06:09:12;0.70;99.90
17178;DHT22;8704;52.006;4.374;2022-12-10T06:11:40;0.60;99.90
17178;DHT22;8704;52.006;4.374;2022-12-10T06:14:09;0.70;99.90
17178;DHT22;8704;52.006;4.374;2022-12-10T06:16:38;0.60;99.90
17178;DHT22;8704;52.006;4.374;2022-12-10T06:19:09;0.70;99.90
17178;DHT22;8704;52.006;4.374;2022-12-10T06:21:37;1.40;99.90
17178;DHT22;8704;52.006;4.374;2022-12-10T06:24:06;0.70;99.90
17178;DHT22;8704;52.006;4.374;2022-12-10T06:26:34;0.70;99.90
17178;DHT22;8704;52.006;4.374;2022-12-10T06:29:02;0.70;99.90
17178;DHT22;8704;52.006;4.374;2022-12-10T06:31:31;0.70;99.90
17178;DHT22;8704;52.006;4.374;2022-12-10T06:33:59;1.00;99.90
17178;DHT22;8704;52.006;4.374;2022-12-10T06:36:28;1.40;99.90
17178;DHT22;8704;52.006;4.374;2022-12-10T06:38:56;0.70;99.90
17178;DHT22;8704;52.006;4.374;2022-12-10T06:41:25;0.70;99.90
17178;DHT22;8704;52.006;4.374;2022-12-10T06:43:53;1.10;99.90
17178;DHT22;8704;52.006;4.374;2022-12-10T06:46:25;0.70;99.90
17178;DHT22;8704;52.006;4.374;2022-12-10T06:48:55;1.90;99.90
17178;DHT22;8704;52.006;4.374;2022-12-10T06:51:23;0.70;99.90
17178;DHT22;8704;52.006;4.374;2022-12-10T06:53:52;0.70;99.90
17178;DHT22;8704;52.006;4.374;2022-12-10T06:56:20;1.70;99.90
17178;DHT22;8704;52.006;4.374;2022-12-10T06:58:48;0.70;99.90
17178;DHT22;8704;52.006;4.374;2022-12-10T07:01:19;0.70;99.90
17178;DHT22;8704;52.006;4.374;2022-12-10T07:03:48;0.90;99.90
17178;DHT22;8704;52.006;4.374;2022-12-10T07:06:16;0.70;99.90
17178;DHT22;8704;52.006;4.374;2022-12-10T07:08:44;0.70;99.90
17178;DHT22;8704;52.006;4.374;2022-12-10T07:11:16;0.70;99.90
17178;DHT22;8704;52.006;4.374;2022-12-10T07:13:45;0.70;99.90
17178;DHT22;8704;52.006;4.374;2022-12-10T07:16:13;0.70;99.90
17178;DHT22;8704;52.006;4.374;2022-12-10T07:18:42;0.70;99.90
17178;DHT22;8704;52.006;4.374;2022-12-10T07:21:19;0.60;99.90
17178;DHT22;8704;52.006;4.374;2022-12-10T07:23:48;0.60;99.90
17178;DHT22;8704;52.006;4.374;2022-12-10T07:26:17;0.60;99.90
17178;DHT22;8704;52.006;4.374;2022-12-10T07:28:45;0.60;99.90
17178;DHT22;8704;52.006;4.374;2022-12-10T07:31:20;1.70;99.90
17178;DHT22;8704;52.006;4.374;2022-12-10T07:33:50;1.60;99.90
17178;DHT22;8704;52.006;4.374;2022-12-10T07:36:19;0.70;99.90
17178;DHT22;8704;52.006;4.374;2022-12-10T07:38:49;0.70;99.90
17178;DHT22;8704;52.006;4.374;2022-12-10T07:41:19;0.60;99.90
17178;DHT22;8704;52.006;4.374;2022-12-10T07:43:48;0.70;99.90
17178;DHT22;8704;52.006;4.374;2022-12-10T07:46:18;1.30;99.90
17178;DHT22;8704;52.006;4.374;2022-12-10T07:48:48;1.50;99.90
17178;DHT22;8704;52.006;4.374;2022-12-10T07:51:18;0.60;99.90
17178;DHT22;8704;52.006;4.374;2022-12-10T07:53:47;0.60;99.90
17178;DHT22;8704;52.006;4.374;2022-12-10T07:56:15;0.60;99.90
17178;DHT22;8704;52.006;4.374;2022-12-10T07:58:45;0.70;99.90
17178;DHT22;8704;52.006;4.374;2022-12-10T08:01:14;0.60;99.90
17178;DHT22;8704;52.006;4.374;2022-12-10T08:03:43;0.70;99.90
17178;DHT22;8704;52.006;4.374;2022-12-10T08:06:13;1.40;99.90
17178;DHT22;8704;52.006;4.374;2022-12-10T08:08:42;0.70;99.90
17178;DHT22;8704;52.006;4.374;2022-12-10T08:11:12;0.80;99.90
17178;DHT22;8704;52.006;4.374;2022-12-10T08:13:40;0.80;99.90
17178;DHT22;8704;52.006;4.374;2022-12-10T08:16:12;0.70;99.90
17178;DHT22;8704;52.006;4.374;2022-12-10T08:18:41;0.70;99.90
17178;DHT22;8704;52.006;4.374;2022-12-10T08:21:11;0.80;99.90
17178;DHT22;8704;52.006;4.374;2022-12-10T08:23:40;0.80;99.90
17178;DHT22;8704;52.006;4.374;2022-12-10T08:26:10;0.90;99.90
17178;DHT22;8704;52.006;4.374;2022-12-10T08:28:39;0.90;99.90
17178;DHT22;8704;52.006;4.374;2022-12-10T08:31:10;1.50;99.90
17178;DHT22;8704;52.006;4.374;2022-12-10T08:33:39;1.90;99.90
17178;DHT22;8704;52.006;4.374;2022-12-10T08:36:10;0.90;99.90
17178;DHT22;8704;52.006;4.374;2022-12-10T08:38:39;0.80;99.90
17178;DHT22;8704;52.006;4.374;2022-12-10T08:41:08;0.80;99.90
17178;DHT22;8704;52.006;4.374;2022-12-10T08:43:37;0.80;99.90
17178;DHT22;8704;52.006;4.374;2022-12-10T08:46:05;1.60;99.90
17178;DHT22;8704;52.006;4.374;2022-12-10T08:48:35;0.80;99.90
17178;DHT22;8704;52.006;4.374;2022-12-10T08:51:04;0.90;99.90
17178;DHT22;8704;52.006;4.374;2022-12-10T08:53:32;0.90;99.90
17178;DHT22;8704;52.006;4.374;2022-12-10T08:56:00;0.90;99.90
17178;DHT22;8704;52.006;4.374;2022-12-10T08:58:28;0.90;99.90
17178;DHT22;8704;52.006;4.374;2022-12-10T09:00:57;0.90;99.90
17178;DHT22;8704;52.006;4.374;2022-12-10T09:03:25;0.90;99.90
17178;DHT22;8704;52.006;4.374;2022-12-10T09:05:55;0.90;99.90
17178;DHT22;8704;52.006;4.374;2022-12-10T09:08:23;0.90;99.90
17178;DHT22;8704;52.006;4.374;2022-12-10T09:10:51;0.90;99.90
17178;DHT22;8704;52.006;4.374;2022-12-10T09:13:19;0.90;99.90
17178;DHT22;8704;52.006;4.374;2022-12-10T09:15:50;2.00;99.90
17178;DHT22;8704;52.006;4.374;2022-12-10T09:18:19;1.00;99.90
17178;DHT22;8704;52.006;4.374;2022-12-10T09:20:47;1.00;99.90
17178;DHT22;8704;52.006;4.374;2022-12-10T09:23:16;1.00;99.90
17178;DHT22;8704;52.006;4.374;2022-12-10T09:25:44;1.10;99.90
17178;DHT22;8704;52.006;4.374;2022-12-10T09:28:12;1.00;99.90
17178;DHT22;8704;52.006;4.374;2022-12-10T09:30:40;1.00;99.90
17178;DHT22;8704;52.006;4.374;2022-12-10T09:33:08;1.10;99.90
17178;DHT22;8704;52.006;4.374;2022-12-10T09:35:40;1.10;99.90
17178;DHT22;8704;52.006;4.374;2022-12-10T09:38:09;1.10;99.90
17178;DHT22;8704;52.006;4.374;2022-12-10T09:40:41;1.90;99.90
17178;DHT22;8704;52.006;4.374;2022-12-10T09:43:16;1.40;99.90
17178;DHT22;8704;52.006;4.374;2022-12-10T09:45:58;1.60;99.90
17178;DHT22;8704;52.006;4.374;2022-12-10T09:48:32;1.10;99.90
17178;DHT22;8704;52.006;4.374;2022-12-10T09:51:07;1.70;99.90
17178;DHT22;8704;52.006;4.374;2022-12-10T09:53:37;1.20;99.90
17178;DHT22;8704;52.006;4.374;2022-12-10T09:56:13;1.60;99.90
17178;DHT22;8704;52.006;4.374;2022-12-10T09:58:44;1.60;99.90
17178;DHT22;8704;52.006;4.374;2022-12-10T10:01:15;2.30;99.90
17178;DHT22;8704;52.006;4.374;2022-12-10T10:03:44;1.10;99.90
17178;DHT22;8704;52.006;4.374;2022-12-10T10:06:16;1.70;99.90
17178;DHT22;8704;52.006;4.374;2022-12-10T10:08:46;1.20;99.90
17178;DHT22;8704;52.006;4.374;2022-12-10T10:11:20;1.70;99.90
17178;DHT22;8704;52.006;4.374;2022-12-10T10:13:51;2.10;99.90
17178;DHT22;8704;52.006;4.374;2022-12-10T10:16:25;2.00;99.90
17178;DHT22;8704;52.006;4.374;2022-12-10T10:18:57;1.20;99.90
17178;DHT22;8704;52.006;4.374;2022-12-10T10:21:28;1.10;99.90
17178;DHT22;8704;52.006;4.374;2022-12-10T10:23:57;1.20;99.90
17178;DHT22;8704;52.006;4.374;2022-12-10T10:26:27;1.80;99.90
17178;DHT22;8704;52.006;4.374;2022-12-10T10:28:58;2.00;99.90
17178;DHT22;8704;52.006;4.374;2022-12-10T10:31:31;1.20;99.90
17178;DHT22;8704;52.006;4.374;2022-12-10T10:34:02;1.30;99.90
17178;DHT22;8704;52.006;4.374;2022-12-10T10:36:32;1.30;99.90
17178;DHT22;8704;52.006;4.374;2022-12-10T10:39:09;1.20;99.90
17178;DHT22;8704;52.006;4.374;2022-12-10T10:41:39;1.70;99.90
17178;DHT22;8704;52.006;4.374;2022-12-10T10:44:15;1.20;99.90
17178;DHT22;8704;52.006;4.374;2022-12-10T10:46:44;1.20;99.90
17178;DHT22;8704;52.006;4.374;2022-12-10T10:49:22;1.20;99.90
17178;DHT22;8704;52.006;4.374;2022-12-10T10:51:52;1.30;99.90
17178;DHT22;8704;52.006;4.374;2022-12-10T10:54:35;2.20;99.90
17178;DHT22;8704;52.006;4.374;2022-12-10T10:57:21;1.40;99.90
17178;DHT22;8704;52.006;4.374;2022-12-10T10:59:52;1.40;99.90
17178;DHT22;8704;52.006;4.374;2022-12-10T11:02:24;1.40;99.90
17178;DHT22;8704;52.006;4.374;2022-12-10T11:04:55;1.30;99.90
17178;DHT22;8704;52.006;4.374;2022-12-10T11:07:33;1.30;99.90
17178;DHT22;8704;52.006;4.374;2022-12-10T11:10:03;1.30;99.90
17178;DHT22;8704;52.006;4.374;2022-12-10T11:12:37;1.30;99.90
17178;DHT22;8704;52.006;4.374;2022-12-10T11:15:29;1.40;99.90
17178;DHT22;8704;52.006;4.374;2022-12-10T11:17:58;1.30;99.90
17178;DHT22;8704;52.006;4.374;2022-12-10T11:20:29;2.30;99.90
17178;DHT22;8704;52.006;4.374;2022-12-10T11:23:09;1.30;99.90
17178;DHT22;8704;52.006;4.374;2022-12-10T11:25:48;1.30;99.90
17178;DHT22;8704;52.006;4.374;2022-12-10T11:28:32;1.40;99.90
17178;DHT22;8704;52.006;4.374;2022-12-10T11:31:18;1.50;99.90
17178;DHT22;8704;52.006;4.374;2022-12-10T11:33:58;1.60;99.90
17178;DHT22;8704;52.006;4.374;2022-12-10T11:36:35;1.60;99.90
17178;DHT22;8704;52.006;4.374;2022-12-10T11:39:16;2.40;99.90
17178;DHT22;8704;52.006;4.374;2022-12-10T11:41:49;1.50;99.90
17178;DHT22;8704;52.006;4.374;2022-12-10T11:44:27;1.80;99.90
17178;DHT22;8704;52.006;4.374;2022-12-10T11:47:14;2.20;99.90
17178;DHT22;8704;52.006;4.374;2022-12-10T11:49:52;2.30;99.90
17178;DHT22;8704;52.006;4.374;2022-12-10T11:52:33;1.70;99.90
17178;DHT22;8704;52.006;4.374;2022-12-10T11:55:10;1.70;99.90
17178;DHT22;8704;52.006;4.374;2022-12-10T11:57:49;1.70;99.90
17178;DHT22;8704;52.006;4.374;2022-12-10T12:00:23;1.70;99.90
17178;DHT22;8704;52.006;4.374;2022-12-10T12:03:10;2.50;99.90
17178;DHT22;8704;52.006;4.374;2022-12-10T12:05:58;1.70;99.90
17178;DHT22;8704;52.006;4.374;2022-12-10T12:08:41;2.00;99.90
17178;DHT22;8704;52.006;4.374;2022-12-10T12:11:30;1.70;99.90
17178;DHT22;8704;52.006;4.374;2022-12-10T12:14:06;1.70;99.90
17178;DHT22;8704;52.006;4.374;2022-12-10T12:16:42;1.70;99.90
17178;DHT22;8704;52.006;4.374;2022-12-10T12:19:14;1.70;99.90
17178;DHT22;8704;52.006;4.374;2022-12-10T12:21:46;1.70;99.90
17178;DHT22;8704;52.006;4.374;2022-12-10T12:24:18;1.70;99.90
17178;DHT22;8704;52.006;4.374;2022-12-10T12:26:52;1.80;99.90
17178;DHT22;8704;52.006;4.374;2022-12-10T12:29:25;1.80;99.90
17178;DHT22;8704;52.006;4.374;2022-12-10T12:32:09;2.70;99.90
17178;DHT22;8704;52.006;4.374;2022-12-10T12:34:46;2.50;99.90
17178;DHT22;8704;52.006;4.374;2022-12-10T12:37:25;2.40;99.90
17178;DHT22;8704;52.006;4.374;2022-12-10T12:40:00;1.80;99.90
17178;DHT22;8704;52.006;4.374;2022-12-10T12:42:34;2.60;99.90
17178;DHT22;8704;52.006;4.374;2022-12-10T12:45:10;1.80;99.90
17178;DHT22;8704;52.006;4.374;2022-12-10T12:47:44;2.50;99.90
17178;DHT22;8704;52.006;4.374;2022-12-10T12:50:24;1.80;99.90
17178;DHT22;8704;52.006;4.374;2022-12-10T12:52:54;1.80;99.90
17178;DHT22;8704;52.006;4.374;2022-12-10T12:55:29;1.80;99.90
17178;DHT22;8704;52.006;4.374;2022-12-10T12:58:16;1.90;99.90
17178;DHT22;8704;52.006;4.374;2022-12-10T13:00:48;1.90;99.90
17178;DHT22;8704;52.006;4.374;2022-12-10T13:03:35;1.80;99.90
17178;DHT22;8704;52.006;4.374;2022-12-10T13:06:16;1.80;99.90
17178;DHT22;8704;52.006;4.374;2022-12-10T13:08:47;1.80;99.90
17178;DHT22;8704;52.006;4.374;2022-12-10T13:11:19;1.80;99.90
17178;DHT22;8704;52.006;4.374;2022-12-10T13:17:01;3.00;99.90
17178;DHT22;8704;52.006;4.374;2022-12-10T13:19:31;1.90;99.90
17178;DHT22;8704;52.006;4.374;2022-12-10T13:22:03;2.30;99.90
17178;DHT22;8704;52.006;4.374;2022-12-10T13:25:04;1.90;99.90
17178;DHT22;8704;52.006;4.374;2022-12-10T13:27:33;1.90;99.90
17178;DHT22;8704;52.006;4.374;2022-12-10T13:32:53;2.10;99.90
17178;DHT22;8704;52.006;4.374;2022-12-10T13:35:31;2.10;99.90
17178;DHT22;8704;52.006;4.374;2022-12-10T13:38:18;2.30;99.90
17178;DHT22;8704;52.006;4.374;2022-12-10T13:40:58;2.20;99.90
17178;DHT22;8704;52.006;4.374;2022-12-10T13:43:56;2.80;99.90
17178;DHT22;8704;52.006;4.374;2022-12-10T13:47:00;2.30;99.90
17178;DHT22;8704;52.006;4.374;2022-12-10T13:49:35;2.30;99.90
17178;DHT22;8704;52.006;4.374;2022-12-10T13:52:16;2.30;99.90
17178;DHT22;8704;52.006;4.374;2022-12-10T13:55:25;2.60;99.90
17178;DHT22;8704;52.006;4.374;2022-12-10T14:00:58;2.40;99.90
17178;DHT22;8704;52.006;4.374;2022-12-10T14:04:11;3.00;99.90
17178;DHT22;8704;52.006;4.374;2022-12-10T14:06:42;2.40;99.90
17178;DHT22;8704;52.006;4.374;2022-12-10T14:09:18;2.70;99.90
17178;DHT22;8704;52.006;4.374;2022-12-10T14:11:51;2.50;99.90
17178;DHT22;8704;52.006;4.374;2022-12-10T14:14:23;2.40;99.90
17178;DHT22;8704;52.006;4.374;2022-12-10T14:16:52;2.60;99.90
17178;DHT22;8704;52.006;4.374;2022-12-10T14:19:25;2.50;99.90
17178;DHT22;8704;52.006;4.374;2022-12-10T14:21:55;2.60;99.90
17178;DHT22;8704;52.006;4.374;2022-12-10T14:24:29;3.20;99.90
17178;DHT22;8704;52.006;4.374;2022-12-10T14:26:59;2.60;99.90
17178;DHT22;8704;52.006;4.374;2022-12-10T14:29:28;2.70;99.90
17178;DHT22;8704;52.006;4.374;2022-12-10T14:31:56;2.60;99.90
17178;DHT22;8704;52.006;4.374;2022-12-10T14:34:27;3.40;99.90
17178;DHT22;8704;52.006;4.374;2022-12-10T14:36:57;2.60;99.90
17178;DHT22;8704;52.006;4.374;2022-12-10T14:39:29;2.90;99.90
17178;DHT22;8704;52.006;4.374;2022-12-10T14:42:00;2.90;99.90
17178;DHT22;8704;52.006;4.374;2022-12-10T14:44:29;2.60;99.90
17178;DHT22;8704;52.006;4.374;2022-12-10T14:47:10;2.60;99.90
17178;DHT22;8704;52.006;4.374;2022-12-10T14:49:41;2.60;99.90
17178;DHT22;8704;52.006;4.374;2022-12-10T14:52:12;3.60;99.90
17178;DHT22;8704;52.006;4.374;2022-12-10T14:54:41;3.60;99.90
17178;DHT22;8704;52.006;4.374;2022-12-10T14:57:15;2.90;99.90
17178;DHT22;8704;52.006;4.374;2022-12-10T14:59:47;2.50;99.90
17178;DHT22;8704;52.006;4.374;2022-12-10T15:02:21;2.50;99.90
17178;DHT22;8704;52.006;4.374;2022-12-10T15:04:50;2.50;99.90
17178;DHT22;8704;52.006;4.374;2022-12-10T15:07:21;2.50;99.90
17178;DHT22;8704;52.006;4.374;2022-12-10T15:09:52;3.10;99.90
17178;DHT22;8704;52.006;4.374;2022-12-10T15:12:28;2.50;99.90
17178;DHT22;8704;52.006;4.374;2022-12-10T15:15:01;2.70;99.90
17178;DHT22;8704;52.006;4.374;2022-12-10T15:17:38;2.50;99.90
17178;DHT22;8704;52.006;4.374;2022-12-10T15:20:19;2.40;99.90
17178;DHT22;8704;52.006;4.374;2022-12-10T15:22:47;2.50;99.90
17178;DHT22;8704;52.006;4.374;2022-12-10T15:25:24;3.00;99.90
17178;DHT22;8704;52.006;4.374;2022-12-10T15:27:57;2.70;99.90
17178;DHT22;8704;52.006;4.374;2022-12-10T15:30:35;2.50;99.90
17178;DHT22;8704;52.006;4.374;2022-12-10T15:33:19;2.50;99.90
17178;DHT22;8704;52.006;4.374;2022-12-10T15:35:49;2.90;99.90
17178;DHT22;8704;52.006;4.374;2022-12-10T15:38:17;2.40;99.90
17178;DHT22;8704;52.006;4.374;2022-12-10T15:40:46;3.30;99.90
17178;DHT22;8704;52.006;4.374;2022-12-10T15:43:26;2.40;99.90
17178;DHT22;8704;52.006;4.374;2022-12-10T15:45:56;2.40;99.90
17178;DHT22;8704;52.006;4.374;2022-12-10T15:48:27;2.40;99.90
17178;DHT22;8704;52.006;4.374;2022-12-10T15:50:55;2.40;99.90
17178;DHT22;8704;52.006;4.374;2022-12-10T15:53:26;2.40;99.90
17178;DHT22;8704;52.006;4.374;2022-12-10T15:56:02;3.10;99.90
17178;DHT22;8704;52.006;4.374;2022-12-10T15:58:30;2.30;99.90
17178;DHT22;8704;52.006;4.374;2022-12-10T16:00:59;2.30;99.90
17178;DHT22;8704;52.006;4.374;2022-12-10T16:03:28;3.30;99.90
17178;DHT22;8704;52.006;4.374;2022-12-10T16:05:56;2.30;99.90
17178;DHT22;8704;52.006;4.374;2022-12-10T16:08:27;2.30;99.90
17178;DHT22;8704;52.006;4.374;2022-12-10T16:11:00;2.30;99.90
17178;DHT22;8704;52.006;4.374;2022-12-10T16:13:30;2.30;99.90
17178;DHT22;8704;52.006;4.374;2022-12-10T16:16:02;2.80;99.90
17178;DHT22;8704;52.006;4.374;2022-12-10T16:18:32;2.30;99.90
17178;DHT22;8704;52.006;4.374;2022-12-10T16:21:03;2.30;99.90
17178;DHT22;8704;52.006;4.374;2022-12-10T16:23:32;2.30;99.90
17178;DHT22;8704;52.006;4.374;2022-12-10T16:26:01;2.30;99.90
17178;DHT22;8704;52.006;4.374;2022-12-10T16:28:30;2.30;99.90
17178;DHT22;8704;52.006;4.374;2022-12-10T16:30:59;2.40;99.90
17178;DHT22;8704;52.006;4.374;2022-12-10T16:33:27;2.80;99.90
17178;DHT22;8704;52.006;4.374;2022-12-10T16:35:56;2.40;99.90
17178;DHT22;8704;52.006;4.374;2022-12-10T16:38:24;2.30;99.90
17178;DHT22;8704;52.006;4.374;2022-12-10T16:40:54;2.40;99.90
17178;DHT22;8704;52.006;4.374;2022-12-10T16:43:23;2.50;99.90